sensor_id;sensor_type;location;lat;lon;timestamp;pressure;altitude;pressure_sealevel;temperature;humidity
74573;BME280;63071;51.526;-0.134;2023-04-03T00:00:26;102718.78;;;21.62;29.48
74573;BME280;63071;51.526;-0.134;2023-04-03T00:02:51;102715.31;;;21.61;28.71
74573;BME280;63071;51.526;-0.134;2023-04-03T00:05:17;102709.97;;;21.61;29.07
74573;BME280;63071;51.526;-0.134;2023-04-03T00:07:42;102709.97;;;21.61;28.66
74573;BME280;63071;51.526;-0.134;2023-04-03T00:10:08;102716.13;;;21.62;29.23
74573;BME280;63071;51.526;-0.134;2023-04-03T00:12:33;102709.97;;;21.61;28.69
74573;BME280;63071;51.526;-0.134;2023-04-03T00:14:59;102709.50;;;21.59;29.41
74573;BME280;63071;51.526;-0.134;2023-04-03T00:17:25;102708.44;;;21.60;28.73
74573;BME280;63071;51.526;-0.134;2023-04-03T00:19:50;102709.22;;;21.60;29.34
74573;BME280;63071;51.526;-0.134;2023-04-03T00:22:16;102710.31;;;21.59;29.17
74573;BME280;63071;51.526;-0.134;2023-04-03T00:24:41;102709.97;;;21.61;28.80
74573;BME280;63071;51.526;-0.134;2023-04-03T00:27:07;102704.19;;;21.59;28.88
74573;BME280;63071;51.526;-0.134;2023-04-03T00:29:32;102702.34;;;21.59;29.05
74573;BME280;63071;51.526;-0.134;2023-04-03T00:31:58;102703.09;;;21.60;29.13
74573;BME280;63071;51.526;-0.134;2023-04-03T00:34:25;102698.88;;;21.59;29.03
74573;BME280;63071;51.526;-0.134;2023-04-03T00:36:50;102702.34;;;21.59;29.07
74573;BME280;63071;51.526;-0.134;2023-04-03T00:39:16;102698.88;;;21.59;28.66
74573;BME280;63071;51.526;-0.134;2023-04-03T00:41:42;102703.72;;;21.57;29.46
74573;BME280;63071;51.526;-0.134;2023-04-03T00:47:05;102693.53;;;21.59;29.37
74573;BME280;63071;51.526;-0.134;2023-04-03T00:49:32;102690.09;;;21.58;29.47
74573;BME280;63071;51.526;-0.134;2023-04-03T00:51:58;102691.22;;;21.57;29.08
74573;BME280;63071;51.526;-0.134;2023-04-03T00:54:25;102693.06;;;21.57;28.84
74573;BME280;63071;51.526;-0.134;2023-04-03T00:56:54;102684.00;;;21.58;28.66
74573;BME280;63071;51.526;-0.134;2023-04-03T00:59:25;102689.34;;;21.58;28.95
74573;BME280;63071;51.526;-0.134;2023-04-03T01:01:57;102690.09;;;21.58;28.70
74573;BME280;63071;51.526;-0.134;2023-04-03T01:04:31;102681.34;;;21.58;28.92
74573;BME280;63071;51.526;-0.134;2023-04-03T01:07:03;102683.22;;;21.57;29.30
74573;BME280;63071;51.526;-0.134;2023-04-03T01:09:32;102683.22;;;21.57;29.35
74573;BME280;63071;51.526;-0.134;2023-04-03T01:14:38;102688.84;;;21.56;29.31
74573;BME280;63071;51.526;-0.134;2023-04-03T01:17:34;102688.09;;;21.55;29.34
74573;BME280;63071;51.526;-0.134;2023-04-03T01:20:22;102688.84;;;21.56;29.05
74573;BME280;63071;51.526;-0.134;2023-04-03T01:25:48;102679.28;;;21.55;29.33
74573;BME280;63071;51.526;-0.134;2023-04-03T01:28:29;102683.53;;;21.56;28.93
74573;BME280;63071;51.526;-0.134;2023-04-03T01:33:26;102680.09;;;21.55;29.22
74573;BME280;63071;51.526;-0.134;2023-04-03T01:35:51;102678.22;;;21.56;29.07
74573;BME280;63071;51.526;-0.134;2023-04-03T01:38:16;102676.97;;;21.53;28.73
74573;BME280;63071;51.526;-0.134;2023-04-03T01:40:42;102687.75;;;21.57;29.22
74573;BME280;63071;51.526;-0.134;2023-04-03T01:43:08;102674.44;;;21.57;28.59
74573;BME280;63071;51.526;-0.134;2023-04-03T01:45:34;102671.31;;;21.55;29.44
74573;BME280;63071;51.526;-0.134;2023-04-03T01:47:59;102679.28;;;21.55;29.08
74573;BME280;63071;51.526;-0.134;2023-04-03T01:50:25;102673.19;;;21.54;28.70
74573;BME280;63071;51.526;-0.134;2023-04-03T01:52:50;102673.97;;;21.55;29.38
74573;BME280;63071;51.526;-0.134;2023-04-03T01:55:16;102673.97;;;21.55;29.10
74573;BME280;63071;51.526;-0.134;2023-04-03T01:57:41;102669.75;;;21.54;28.78
74573;BME280;63071;51.526;-0.134;2023-04-03T02:00:08;102673.97;;;21.55;29.31
74573;BME280;63071;51.526;-0.134;2023-04-03T02:02:33;102670.84;;;21.53;29.05
74573;BME280;63071;51.526;-0.134;2023-04-03T02:04:59;102667.09;;;21.54;29.11
74573;BME280;63071;51.526;-0.134;2023-04-03T02:07:24;102668.19;;;21.53;29.16
74573;BME280;63071;51.526;-0.134;2023-04-03T02:09:50;102662.38;;;21.51;28.87
74573;BME280;63071;51.526;-0.134;2023-04-03T02:12:16;102667.09;;;21.54;29.27
74573;BME280;63071;51.526;-0.134;2023-04-03T02:14:41;102671.66;;;21.53;28.71
74573;BME280;63071;51.526;-0.134;2023-04-03T02:17:06;102669.28;;;21.52;28.76
74573;BME280;63071;51.526;-0.134;2023-04-03T02:19:34;102676.97;;;21.53;29.42
74573;BME280;63071;51.526;-0.134;2023-04-03T02:22:02;102676.16;;;21.53;28.82
74573;BME280;63071;51.526;-0.134;2023-04-03T02:24:27;102669.75;;;21.54;28.65
74573;BME280;63071;51.526;-0.134;2023-04-03T02:26:53;102668.19;;;21.53;29.26
74573;BME280;63071;51.526;-0.134;2023-04-03T02:29:19;102671.66;;;21.53;29.26
74573;BME280;63071;51.526;-0.134;2023-04-03T02:31:44;102669.28;;;21.52;29.22
74573;BME280;63071;51.526;-0.134;2023-04-03T02:34:09;102664.44;;;21.54;28.61
74573;BME280;63071;51.526;-0.134;2023-04-03T02:36:35;102656.75;;;21.52;29.28
74573;BME280;63071;51.526;-0.134;2023-04-03T02:39:00;102660.19;;;21.53;28.86
74573;BME280;63071;51.526;-0.134;2023-04-03T02:41:26;102663.97;;;21.52;29.19
74573;BME280;63071;51.526;-0.134;2023-04-03T02:43:58;102660.19;;;21.53;29.24
74573;BME280;63071;51.526;-0.134;2023-04-03T02:46:24;102656.28;;;21.50;29.21
74573;BME280;63071;51.526;-0.134;2023-04-03T02:48:50;102662.38;;;21.51;29.09
74573;BME280;63071;51.526;-0.134;2023-04-03T02:51:15;102650.81;;;21.47;28.76
74573;BME280;63071;51.526;-0.134;2023-04-03T02:53:41;102656.00;;;21.52;29.42
74573;BME280;63071;51.526;-0.134;2023-04-03T02:56:06;102657.88;;;21.51;29.18
74573;BME280;63071;51.526;-0.134;2023-04-03T02:58:32;102649.09;;;21.51;29.46
74573;BME280;63071;51.526;-0.134;2023-04-03T03:00:57;102654.75;;;21.49;28.96
74573;BME280;63071;51.526;-0.134;2023-04-03T03:03:23;102645.97;;;21.49;28.60
74573;BME280;63071;51.526;-0.134;2023-04-03T03:05:48;102655.53;;;21.50;28.88
74573;BME280;63071;51.526;-0.134;2023-04-03T03:08:13;102652.09;;;21.49;28.64
74573;BME280;63071;51.526;-0.134;2023-04-03T03:10:39;102646.75;;;21.49;28.70
74573;BME280;63071;51.526;-0.134;2023-04-03T03:13:05;102645.66;;;21.50;28.60
74573;BME280;63071;51.526;-0.134;2023-04-03T03:15:30;102644.09;;;21.49;28.70
74573;BME280;63071;51.526;-0.134;2023-04-03T03:17:56;102633.47;;;21.49;29.28
74573;BME280;63071;51.526;-0.134;2023-04-03T03:20:21;102643.28;;;21.49;28.67
74573;BME280;63071;51.526;-0.134;2023-04-03T03:22:47;102638.78;;;21.49;29.53
74573;BME280;63071;51.526;-0.134;2023-04-03T03:25:12;102638.78;;;21.49;28.97
74573;BME280;63071;51.526;-0.134;2023-04-03T03:27:37;102645.97;;;21.49;29.13
74573;BME280;63071;51.526;-0.134;2023-04-03T03:30:04;102637.97;;;21.49;28.78
74573;BME280;63071;51.526;-0.134;2023-04-03T03:32:30;102630.78;;;21.49;28.72
74573;BME280;63071;51.526;-0.134;2023-04-03T03:34:55;102643.28;;;21.49;28.86
74573;BME280;63071;51.526;-0.134;2023-04-03T03:37:21;102643.28;;;21.49;28.83
74573;BME280;63071;51.526;-0.134;2023-04-03T03:39:46;102633.00;;;21.47;28.76
74573;BME280;63071;51.526;-0.134;2023-04-03T03:42:11;102643.63;;;21.47;29.05
74573;BME280;63071;51.526;-0.134;2023-04-03T03:44:37;102639.56;;;21.50;28.99
74573;BME280;63071;51.526;-0.134;2023-04-03T03:47:02;102630.00;;;21.49;29.45
74573;BME280;63071;51.526;-0.134;2023-04-03T03:49:28;102635.31;;;21.49;28.77
74573;BME280;63071;51.526;-0.134;2023-04-03T03:51:53;102636.13;;;21.49;28.68
74573;BME280;63071;51.526;-0.134;2023-04-03T03:54:19;102631.88;;;21.48;29.42
74573;BME280;63071;51.526;-0.134;2023-04-03T03:56:44;102630.31;;;21.47;29.06
74573;BME280;63071;51.526;-0.134;2023-04-03T03:59:12;102639.09;;;21.48;29.28
74573;BME280;63071;51.526;-0.134;2023-04-03T04:01:37;102640.16;;;21.47;28.96
74573;BME280;63071;51.526;-0.134;2023-04-03T04:04:03;102635.66;;;21.47;29.09
74573;BME280;63071;51.526;-0.134;2023-04-03T04:06:28;102629.53;;;21.47;29.18
74573;BME280;63071;51.526;-0.134;2023-04-03T04:08:54;102629.53;;;21.47;29.40
74573;BME280;63071;51.526;-0.134;2023-04-03T04:11:19;102631.41;;;21.46;28.57
74573;BME280;63071;51.526;-0.134;2023-04-03T04:13:45;102614.19;;;21.44;28.91
74573;BME280;63071;51.526;-0.134;2023-04-03T04:16:11;102626.09;;;21.46;28.68
74573;BME280;63071;51.526;-0.134;2023-04-03T04:18:36;102621.53;;;21.47;29.44
74573;BME280;63071;51.526;-0.134;2023-04-03T04:21:04;102629.06;;;21.45;28.77
74573;BME280;63071;51.526;-0.134;2023-04-03T04:23:29;102623.44;;;21.46;28.91
74573;BME280;63071;51.526;-0.134;2023-04-03T04:25:54;102620.28;;;21.44;28.89
74573;BME280;63071;51.526;-0.134;2023-04-03T04:28:20;102622.66;;;21.46;28.95
74573;BME280;63071;51.526;-0.134;2023-04-03T04:30:46;102631.72;;;21.45;29.08
74573;BME280;63071;51.526;-0.134;2023-04-03T04:33:11;102629.06;;;21.45;29.46
74573;BME280;63071;51.526;-0.134;2023-04-03T04:35:37;102620.59;;;21.43;29.07
74573;BME280;63071;51.526;-0.134;2023-04-03T04:38:02;102628.28;;;21.44;28.84
74573;BME280;63071;51.526;-0.134;2023-04-03T04:40:29;102627.50;;;21.44;28.59
74573;BME280;63071;51.526;-0.134;2023-04-03T04:42:54;102636.25;;;21.44;29.31
74573;BME280;63071;51.526;-0.134;2023-04-03T04:45:20;102631.72;;;21.45;28.92
74573;BME280;63071;51.526;-0.134;2023-04-03T04:47:46;102632.81;;;21.44;28.97
74573;BME280;63071;51.526;-0.134;2023-04-03T04:50:12;102628.59;;;21.43;29.05
74573;BME280;63071;51.526;-0.134;2023-04-03T04:52:38;102627.50;;;21.44;29.23
74573;BME280;63071;51.526;-0.134;2023-04-03T04:55:04;102630.44;;;21.42;28.76
74573;BME280;63071;51.526;-0.134;2023-04-03T04:57:30;102625.41;;;21.40;28.85
74573;BME280;63071;51.526;-0.134;2023-04-03T04:59:55;102630.16;;;21.44;29.16
74573;BME280;63071;51.526;-0.134;2023-04-03T05:02:21;102625.72;;;21.39;28.67
74573;BME280;63071;51.526;-0.134;2023-04-03T05:04:46;102630.16;;;21.44;29.06
74573;BME280;63071;51.526;-0.134;2023-04-03T05:07:12;102637.34;;;21.43;29.32
74573;BME280;63071;51.526;-0.134;2023-04-03T05:09:37;102625.91;;;21.43;28.64
74573;BME280;63071;51.526;-0.134;2023-04-03T05:12:03;102633.91;;;21.43;28.79
74573;BME280;63071;51.526;-0.134;2023-04-03T05:14:29;102644.53;;;21.43;28.89
74573;BME280;63071;51.526;-0.134;2023-04-03T05:16:55;102645.63;;;21.41;29.23
74573;BME280;63071;51.526;-0.134;2023-04-03T05:19:21;102632.00;;;21.43;29.47
74573;BME280;63071;51.526;-0.134;2023-04-03T05:21:46;102628.59;;;21.43;28.63
74573;BME280;63071;51.526;-0.134;2023-04-03T05:24:13;102652.66;;;21.37;28.84
74573;BME280;63071;51.526;-0.134;2023-04-03T05:26:39;102653.13;;;21.39;29.12
74573;BME280;63071;51.526;-0.134;2023-04-03T05:29:04;102650.13;;;21.41;29.21
74573;BME280;63071;51.526;-0.134;2023-04-03T05:31:30;102644.72;;;21.46;29.15
74573;BME280;63071;51.526;-0.134;2023-04-03T05:33:56;102640.97;;;21.47;28.73
74573;BME280;63071;51.526;-0.134;2023-04-03T05:36:22;102649.88;;;21.51;29.38
74573;BME280;63071;51.526;-0.134;2023-04-03T05:38:47;102641.09;;;21.51;28.67
74573;BME280;63071;51.526;-0.134;2023-04-03T05:41:14;102638.91;;;21.53;29.05
74573;BME280;63071;51.526;-0.134;2023-04-03T05:43:39;102643.47;;;21.52;29.21
74573;BME280;63071;51.526;-0.134;2023-04-03T05:46:12;102645.03;;;21.53;29.01
74573;BME280;63071;51.526;-0.134;2023-04-03T05:48:38;102654.28;;;21.56;29.02
74573;BME280;63071;51.526;-0.134;2023-04-03T05:51:06;102649.72;;;21.56;29.08
74573;BME280;63071;51.526;-0.134;2023-04-03T05:53:35;102645.97;;;21.57;28.56
74573;BME280;63071;51.526;-0.134;2023-04-03T05:56:03;102650.97;;;21.59;29.26
74573;BME280;63071;51.526;-0.134;2023-04-03T05:58:28;102649.13;;;21.59;29.32
74573;BME280;63071;51.526;-0.134;2023-04-03T06:00:54;102644.56;;;21.60;29.33
74573;BME280;63071;51.526;-0.134;2023-04-03T06:03:19;102653.03;;;21.62;29.21
74573;BME280;63071;51.526;-0.134;2023-04-03T06:05:45;102647.69;;;21.62;28.79
74573;BME280;63071;51.526;-0.134;2023-04-03T06:08:11;102650.84;;;21.64;29.17
74573;BME280;63071;51.526;-0.134;2023-04-03T06:10:38;102644.25;;;21.62;29.22
74573;BME280;63071;51.526;-0.134;2023-04-03T06:13:04;102652.38;;;21.65;28.62
74573;BME280;63071;51.526;-0.134;2023-04-03T06:15:29;102652.84;;;21.67;28.94
74573;BME280;63071;51.526;-0.134;2023-04-03T06:17:55;102651.31;;;21.66;29.08
74573;BME280;63071;51.526;-0.134;2023-04-03T06:20:21;102657.56;;;21.70;29.03
74573;BME280;63071;51.526;-0.134;2023-04-03T06:22:47;102654.13;;;21.70;28.83
74573;BME280;63071;51.526;-0.134;2023-04-03T06:25:13;102658.66;;;21.69;28.80
74573;BME280;63071;51.526;-0.134;2023-04-03T06:27:38;102657.56;;;21.70;29.18
74573;BME280;63071;51.526;-0.134;2023-04-03T06:30:06;102660.53;;;21.69;28.97
74573;BME280;63071;51.526;-0.134;2023-04-03T06:32:32;102655.50;;;21.67;28.74
74573;BME280;63071;51.526;-0.134;2023-04-03T06:34:57;102673.84;;;21.69;28.84
74573;BME280;63071;51.526;-0.134;2023-04-03T06:37:24;102663.03;;;21.65;28.63
74573;BME280;63071;51.526;-0.134;2023-04-03T06:39:54;102664.91;;;21.65;28.98
74573;BME280;63071;51.526;-0.134;2023-04-03T06:42:20;102666.03;;;21.64;28.60
74573;BME280;63071;51.526;-0.134;2023-04-03T06:44:46;102674.78;;;21.64;29.30
74573;BME280;63071;51.526;-0.134;2023-04-03T06:47:15;102664.44;;;21.63;28.86
74573;BME280;63071;51.526;-0.134;2023-04-03T06:49:42;102667.09;;;21.63;28.63
74573;BME280;63071;51.526;-0.134;2023-04-03T06:52:08;102657.56;;;21.62;29.08
74573;BME280;63071;51.526;-0.134;2023-04-03T06:54:34;102658.34;;;21.62;29.00
74573;BME280;63071;51.526;-0.134;2023-04-03T06:57:00;102651.78;;;21.59;28.78
74573;BME280;63071;51.526;-0.134;2023-04-03T06:59:26;102663.50;;;21.58;28.87
74573;BME280;63071;51.526;-0.134;2023-04-03T07:01:52;102657.09;;;21.59;28.71
74573;BME280;63071;51.526;-0.134;2023-04-03T07:04:17;102671.19;;;21.60;29.14
74573;BME280;63071;51.526;-0.134;2023-04-03T07:06:45;102661.63;;;21.59;28.76
74573;BME280;63071;51.526;-0.134;2023-04-03T07:09:12;102671.19;;;21.60;28.90
74573;BME280;63071;51.526;-0.134;2023-04-03T07:11:38;102674.91;;;21.59;29.03
74573;BME280;63071;51.526;-0.134;2023-04-03T07:14:03;102668.81;;;21.58;28.95
74573;BME280;63071;51.526;-0.134;2023-04-03T07:16:28;102668.03;;;21.58;29.40
74573;BME280;63071;51.526;-0.134;2023-04-03T07:18:56;102665.69;;;21.56;28.89
74573;BME280;63071;51.526;-0.134;2023-04-03T07:21:22;102660.06;;;21.58;28.55
74573;BME280;63071;51.526;-0.134;2023-04-03T07:23:47;102664.13;;;21.55;29.35
74573;BME280;63071;51.526;-0.134;2023-04-03T07:26:13;102667.28;;;21.57;29.37
74573;BME280;63071;51.526;-0.134;2023-04-03T07:28:38;102671.00;;;21.56;28.79
74573;BME280;63071;51.526;-0.134;2023-04-03T07:31:08;102673.66;;;21.56;28.59
74573;BME280;63071;51.526;-0.134;2023-04-03T07:33:36;102671.00;;;21.56;28.91
74573;BME280;63071;51.526;-0.134;2023-04-03T07:36:03;102664.91;;;21.56;29.09
74573;BME280;63071;51.526;-0.134;2023-04-03T07:38:28;102671.78;;;21.57;29.43
74573;BME280;63071;51.526;-0.134;2023-04-03T07:40:54;102671.00;;;21.56;28.69
74573;BME280;63071;51.526;-0.134;2023-04-03T07:43:21;102673.38;;;21.58;29.20
74573;BME280;63071;51.526;-0.134;2023-04-03T07:45:48;102668.03;;;21.58;28.76
74573;BME280;63071;51.526;-0.134;2023-04-03T07:48:17;102656.63;;;21.57;28.67
74573;BME280;63071;51.526;-0.134;2023-04-03T07:50:43;102656.63;;;21.57;29.57
74573;BME280;63071;51.526;-0.134;2023-04-03T07:53:09;102649.72;;;21.56;29.14
74573;BME280;63071;51.526;-0.134;2023-04-03T07:55:35;102656.94;;;21.56;29.05
74573;BME280;63071;51.526;-0.134;2023-04-03T07:58:11;102671.00;;;21.56;29.42
74573;BME280;63071;51.526;-0.134;2023-04-03T08:00:37;102671.78;;;21.57;29.24
74573;BME280;63071;51.526;-0.134;2023-04-03T08:03:03;102671.78;;;21.57;29.09
74573;BME280;63071;51.526;-0.134;2023-04-03T08:05:29;102674.44;;;21.57;28.92
74573;BME280;63071;51.526;-0.134;2023-04-03T08:07:54;102669.00;;;21.53;28.98
74573;BME280;63071;51.526;-0.134;2023-04-03T08:10:20;102679.78;;;21.57;29.00
74573;BME280;63071;51.526;-0.134;2023-04-03T08:12:47;102677.09;;;21.57;28.90
74573;BME280;63071;51.526;-0.134;2023-04-03T08:15:13;102669.75;;;21.54;29.37
74573;BME280;63071;51.526;-0.134;2023-04-03T08:17:38;102677.09;;;21.57;29.00
74573;BME280;63071;51.526;-0.134;2023-04-03T08:20:06;102679.47;;;21.58;29.56
74573;BME280;63071;51.526;-0.134;2023-04-03T08:22:33;102682.91;;;21.59;29.09
74573;BME280;63071;51.526;-0.134;2023-04-03T08:24:58;102682.59;;;21.60;29.32
74573;BME280;63071;51.526;-0.134;2023-04-03T08:27:24;102683.38;;;21.61;29.41
74573;BME280;63071;51.526;-0.134;2023-04-03T08:29:51;102687.63;;;21.62;29.43
74573;BME280;63071;51.526;-0.134;2023-04-03T08:32:17;102678.84;;;21.62;29.30
74573;BME280;63071;51.526;-0.134;2023-04-03T08:34:43;102682.28;;;21.62;29.32
74573;BME280;63071;51.526;-0.134;2023-04-03T08:37:08;102685.72;;;21.63;28.87
74573;BME280;63071;51.526;-0.134;2023-04-03T08:39:34;102689.16;;;21.63;29.43
74573;BME280;63071;51.526;-0.134;2023-04-03T08:42:13;102682.75;;;21.64;29.13
74573;BME280;63071;51.526;-0.134;2023-04-03T08:44:58;102681.19;;;21.63;28.88
74573;BME280;63071;51.526;-0.134;2023-04-03T08:47:45;102686.50;;;21.63;28.87
74573;BME280;63071;51.526;-0.134;2023-04-03T08:50:18;102689.16;;;21.63;29.16
74573;BME280;63071;51.526;-0.134;2023-04-03T08:52:48;102692.16;;;21.62;28.86
74573;BME280;63071;51.526;-0.134;2023-04-03T08:55:29;102692.16;;;21.62;29.52
74573;BME280;63071;51.526;-0.134;2023-04-03T08:58:16;102695.28;;;21.64;29.67
74573;BME280;63071;51.526;-0.134;2023-04-03T09:03:23;102684.78;;;21.67;29.03
74573;BME280;63071;51.526;-0.134;2023-04-03T09:06:07;102694.81;;;21.70;29.02
74573;BME280;63071;51.526;-0.134;2023-04-03T09:08:43;102685.72;;;21.71;29.10
74573;BME280;63071;51.526;-0.134;2023-04-03T09:11:25;102676.66;;;21.72;29.84
74573;BME280;63071;51.526;-0.134;2023-04-03T09:13:59;102672.88;;;21.73;29.23
74573;BME280;63071;51.526;-0.134;2023-04-03T09:22:12;102672.09;;;21.81;29.37
74573;BME280;63071;51.526;-0.134;2023-04-03T09:24:39;102667.72;;;21.86;29.49
74573;BME280;63071;51.526;-0.134;2023-04-03T09:27:09;102670.84;;;21.88;29.70
74573;BME280;63071;51.526;-0.134;2023-04-03T09:29:41;102654.88;;;21.88;30.11
74573;BME280;63071;51.526;-0.134;2023-04-03T09:32:20;102662.88;;;21.88;30.26
74573;BME280;63071;51.526;-0.134;2023-04-03T09:34:48;102663.19;;;21.86;30.03
74573;BME280;63071;51.526;-0.134;2023-04-03T09:40:00;102666.47;;;21.83;30.17
74573;BME280;63071;51.526;-0.134;2023-04-03T09:42:27;102661.16;;;21.74;30.97
74573;BME280;63071;51.526;-0.134;2023-04-03T09:44:58;102655.97;;;21.69;30.95
74573;BME280;63071;51.526;-0.134;2023-04-03T09:52:41;102661.00;;;21.79;31.19
74573;BME280;63071;51.526;-0.134;2023-04-03T09:57:39;102653.47;;;21.73;31.54
74573;BME280;63071;51.526;-0.134;2023-04-03T10:00:05;102653.78;;;21.71;31.75
74573;BME280;63071;51.526;-0.134;2023-04-03T10:04:56;102661.31;;;21.78;31.16
74573;BME280;63071;51.526;-0.134;2023-04-03T10:07:35;102653.66;;;21.68;31.21
74573;BME280;63071;51.526;-0.134;2023-04-03T10:12:45;102657.38;;;21.75;31.97
74573;BME280;63071;51.526;-0.134;2023-04-03T10:15:13;102661.00;;;21.88;32.31
74573;BME280;63071;51.526;-0.134;2023-04-03T10:18:02;102651.75;;;21.86;31.83
74573;BME280;63071;51.526;-0.134;2023-04-03T10:20:43;102660.38;;;21.74;32.41
74573;BME280;63071;51.526;-0.134;2023-04-03T10:23:18;102656.59;;;21.84;32.20
74573;BME280;63071;51.526;-0.134;2023-04-03T10:31:17;102657.72;;;21.83;32.38
74573;BME280;63071;51.526;-0.134;2023-04-03T10:36:43;102655.38;;;21.81;31.81
74573;BME280;63071;51.526;-0.134;2023-04-03T10:39:17;102658.78;;;21.81;32.12
74573;BME280;63071;51.526;-0.134;2023-04-03T10:46:46;102658.97;;;21.94;32.63
74573;BME280;63071;51.526;-0.134;2023-04-03T10:52:52;102646.41;;;22.03;32.67
74573;BME280;63071;51.526;-0.134;2023-04-03T10:55:35;102643.91;;;22.07;32.18
74573;BME280;63071;51.526;-0.134;2023-04-03T10:58:03;102646.72;;;22.10;32.24
74573;BME280;63071;51.526;-0.134;2023-04-03T11:00:47;102650.78;;;22.16;32.49
74573;BME280;63071;51.526;-0.134;2023-04-03T11:03:47;102649.06;;;22.20;32.57
74573;BME280;63071;51.526;-0.134;2023-04-03T11:06:17;102640.56;;;22.36;32.39
74573;BME280;63071;51.526;-0.134;2023-04-03T11:08:57;102636.53;;;22.30;31.94
74573;BME280;63071;51.526;-0.134;2023-04-03T11:11:27;102642.16;;;22.37;32.19
74573;BME280;63071;51.526;-0.134;2023-04-03T11:14:03;102639.50;;;22.37;32.09
74573;BME280;63071;51.526;-0.134;2023-04-03T11:16:36;102643.53;;;22.43;32.30
74573;BME280;63071;51.526;-0.134;2023-04-03T11:19:25;102640.84;;;22.52;32.04
74573;BME280;63071;51.526;-0.134;2023-04-03T11:22:25;102632.84;;;22.52;31.84
74573;BME280;63071;51.526;-0.134;2023-04-03T11:27:38;102624.69;;;22.57;31.72
74573;BME280;63071;51.526;-0.134;2023-04-03T11:30:09;102626.09;;;22.54;32.14
74573;BME280;63071;51.526;-0.134;2023-04-03T11:35:17;102625.94;;;22.59;31.99
74573;BME280;63071;51.526;-0.134;2023-04-03T11:37:48;102624.81;;;22.60;32.02
74573;BME280;63071;51.526;-0.134;2023-04-03T11:42:42;102624.97;;;22.64;32.23
74573;BME280;63071;51.526;-0.134;2023-04-03T11:50:47;102603.47;;;22.69;31.84
74573;BME280;63071;51.526;-0.134;2023-04-03T11:55:44;102604.75;;;22.63;31.95
74573;BME280;63071;51.526;-0.134;2023-04-03T11:58:24;102610.84;;;22.64;32.61
74573;BME280;63071;51.526;-0.134;2023-04-03T12:13:36;102579.94;;;22.71;31.98
74573;BME280;63071;51.526;-0.134;2023-04-03T12:16:04;102586.50;;;22.74;31.84
74573;BME280;63071;51.526;-0.134;2023-04-03T12:21:15;102587.50;;;22.90;32.30
74573;BME280;63071;51.526;-0.134;2023-04-03T12:27:00;102569.59;;;22.99;31.82
74573;BME280;63071;51.526;-0.134;2023-04-03T12:32:08;102569.44;;;22.96;31.70
74573;BME280;63071;51.526;-0.134;2023-04-03T12:40:28;102571.88;;;22.80;32.05
74573;BME280;63071;51.526;-0.134;2023-04-03T12:46:03;102575.78;;;22.83;32.40
74573;BME280;63071;51.526;-0.134;2023-04-03T12:48:31;102570.59;;;22.86;32.26
74573;BME280;63071;51.526;-0.134;2023-04-03T12:50:59;102572.16;;;22.87;32.24
74573;BME280;63071;51.526;-0.134;2023-04-03T12:53:34;102568.38;;;22.88;32.30
74573;BME280;63071;51.526;-0.134;2023-04-03T12:58:50;102562.28;;;22.88;32.21
74573;BME280;63071;51.526;-0.134;2023-04-03T13:01:20;102556.03;;;22.84;32.14
74573;BME280;63071;51.526;-0.134;2023-04-03T13:03:53;102550.38;;;22.85;32.39
74573;BME280;63071;51.526;-0.134;2023-04-03T13:07:01;102551.00;;;22.82;32.77
74573;BME280;63071;51.526;-0.134;2023-04-03T13:09:21;102560.59;;;22.83;32.71
74573;BME280;63071;51.526;-0.134;2023-04-03T13:11:49;102546.53;;;22.74;32.45
74573;BME280;63071;51.526;-0.134;2023-04-03T13:14:22;102547.38;;;22.87;32.36
74573;BME280;63071;51.526;-0.134;2023-04-03T13:17:10;102547.06;;;22.88;32.41
74573;BME280;63071;51.526;-0.134;2023-04-03T13:19:38;102544.59;;;22.83;32.38
74573;BME280;63071;51.526;-0.134;2023-04-03T13:24:46;102546.28;;;22.88;32.88
74573;BME280;63071;51.526;-0.134;2023-04-03T13:27:15;102540.63;;;22.89;32.35
74573;BME280;63071;51.526;-0.134;2023-04-03T13:29:41;102544.97;;;22.94;32.34
74573;BME280;63071;51.526;-0.134;2023-04-03T13:32:18;102540.44;;;22.94;32.19
74573;BME280;63071;51.526;-0.134;2023-04-03T13:34:45;102539.78;;;22.97;32.26
74573;BME280;63071;51.526;-0.134;2023-04-03T13:37:25;102537.22;;;23.01;32.13
74573;BME280;63071;51.526;-0.134;2023-04-03T13:40:17;102536.88;;;23.11;32.15
74573;BME280;63071;51.526;-0.134;2023-04-03T13:42:43;102529.66;;;23.12;32.27
74573;BME280;63071;51.526;-0.134;2023-04-03T13:47:41;102528.53;;;23.13;32.17
74573;BME280;63071;51.526;-0.134;2023-04-03T13:50:24;102523.34;;;23.16;32.01
74573;BME280;63071;51.526;-0.134;2023-04-03T13:53:13;102518.38;;;23.27;32.01
74573;BME280;63071;51.526;-0.134;2023-04-03T13:55:59;102513.31;;;23.34;31.57
74573;BME280;63071;51.526;-0.134;2023-04-03T13:58:32;102507.13;;;23.43;31.44
74573;BME280;63071;51.526;-0.134;2023-04-03T14:01:09;102501.69;;;23.51;31.56
74573;BME280;63071;51.526;-0.134;2023-04-03T14:06:19;102509.41;;;23.65;31.20
74573;BME280;63071;51.526;-0.134;2023-04-03T14:08:45;102517.84;;;23.67;30.99
74573;BME280;63071;51.526;-0.134;2023-04-03T14:11:15;102507.19;;;23.67;31.27
74573;BME280;63071;51.526;-0.134;2023-04-03T14:13:43;102506.78;;;23.77;31.19
74573;BME280;63071;51.526;-0.134;2023-04-03T14:16:15;102497.63;;;23.66;31.28
74573;BME280;63071;51.526;-0.134;2023-04-03T14:18:44;102504.47;;;23.55;31.26
74573;BME280;63071;51.526;-0.134;2023-04-03T14:21:12;102505.78;;;23.49;31.60
74573;BME280;63071;51.526;-0.134;2023-04-03T14:23:38;102500.66;;;23.44;31.64
74573;BME280;63071;51.526;-0.134;2023-04-03T14:26:09;102498.84;;;23.35;31.75
74573;BME280;63071;51.526;-0.134;2023-04-03T14:28:35;102496.31;;;23.39;32.10
74573;BME280;63071;51.526;-0.134;2023-04-03T14:31:01;102494.44;;;23.52;32.04
74573;BME280;63071;51.526;-0.134;2023-04-03T14:33:27;102492.91;;;23.51;31.77
74573;BME280;63071;51.526;-0.134;2023-04-03T14:35:54;102478.34;;;23.48;31.98